sensor_id;sensor_type;location;lat;lon;timestamp;pressure;altitude;pressure_sealevel;temperature;humidity
77247;BME280;66279;42.820;23.374;2024-03-08T00:00:08;95788.09;;;11.05;54.49
77247;BME280;66279;42.820;23.374;2024-03-08T00:02:40;95794.59;;;11.16;54.31
77247;BME280;66279;42.820;23.374;2024-03-08T00:05:07;95789.50;;;11.14;54.28
77247;BME280;66279;42.820;23.374;2024-03-08T00:07:37;95792.97;;;11.15;54.47
77247;BME280;66279;42.820;23.374;2024-03-08T00:10:04;95790.34;;;11.15;54.33
77247;BME280;66279;42.820;23.374;2024-03-08T00:12:29;95797.47;;;11.01;54.76
77247;BME280;66279;42.820;23.374;2024-03-08T00:14:55;95786.06;;;11.07;54.48
77247;BME280;66279;42.820;23.374;2024-03-08T00:17:21;95789.31;;;11.09;54.74
77247;BME280;66279;42.820;23.374;2024-03-08T00:19:50;95791.75;;;11.04;54.67
77247;BME280;66279;42.820;23.374;2024-03-08T00:22:16;95789.94;;;11.04;54.61
77247;BME280;66279;42.820;23.374;2024-03-08T00:24:42;95761.84;;;10.83;54.67
77247;BME280;66279;42.820;23.374;2024-03-08T00:27:08;95790.16;;;11.03;54.66
77247;BME280;66279;42.820;23.374;2024-03-08T00:29:34;95782.19;;;11.10;54.56
77247;BME280;66279;42.820;23.374;2024-03-08T00:32:00;95792.56;;;11.04;54.77
77247;BME280;66279;42.820;23.374;2024-03-08T00:34:26;95784.03;;;11.09;54.75
77247;BME280;66279;42.820;23.374;2024-03-08T00:36:52;95784.44;;;10.99;54.38
77247;BME280;66279;42.820;23.374;2024-03-08T00:39:18;95780.16;;;10.98;54.88
77247;BME280;66279;42.820;23.374;2024-03-08T00:41:45;95777.47;;;11.05;54.63
77247;BME280;66279;42.820;23.374;2024-03-08T00:44:10;95775.66;;;10.99;54.65
77247;BME280;66279;42.820;23.374;2024-03-08T00:46:36;95773.66;;;10.94;54.94
77247;BME280;66279;42.820;23.374;2024-03-08T00:49:01;95775.25;;;11.02;54.82
77247;BME280;66279;42.820;23.374;2024-03-08T00:51:26;95775.47;;;11.00;54.76
77247;BME280;66279;42.820;23.374;2024-03-08T00:53:52;95772.59;;;11.02;54.85
77247;BME280;66279;42.820;23.374;2024-03-08T00:56:17;95772.19;;;11.12;54.35
77247;BME280;66279;42.820;23.374;2024-03-08T00:58:43;95767.94;;;10.97;55.04
77247;BME280;66279;42.820;23.374;2024-03-08T01:01:08;95769.75;;;11.03;54.79
77247;BME280;66279;42.820;23.374;2024-03-08T01:03:35;95755.91;;;11.01;54.65
77247;BME280;66279;42.820;23.374;2024-03-08T01:06:01;95761.81;;;11.03;54.77
77247;BME280;66279;42.820;23.374;2024-03-08T01:08:27;95756.94;;;11.00;54.89
77247;BME280;66279;42.820;23.374;2024-03-08T01:10:53;95758.38;;;10.96;54.90
77247;BME280;66279;42.820;23.374;2024-03-08T01:13:18;95749.41;;;10.97;54.94
77247;BME280;66279;42.820;23.374;2024-03-08T01:15:44;95744.28;;;10.96;55.02
77247;BME280;66279;42.820;23.374;2024-03-08T01:18:11;95745.31;;;11.01;54.82
77247;BME280;66279;42.820;23.374;2024-03-08T01:20:36;95741.63;;;10.96;54.88
77247;BME280;66279;42.820;23.374;2024-03-08T01:23:02;95736.38;;;10.89;55.23
77247;BME280;66279;42.820;23.374;2024-03-08T01:25:28;95733.28;;;10.99;54.84
77247;BME280;66279;42.820;23.374;2024-03-08T01:27:54;95723.94;;;10.96;54.85
77247;BME280;66279;42.820;23.374;2024-03-08T01:30:19;95721.84;;;11.05;54.62
77247;BME280;66279;42.820;23.374;2024-03-08T01:32:45;95720.69;;;10.88;54.68
77247;BME280;66279;42.820;23.374;2024-03-08T01:35:10;95712.91;;;10.93;54.90
77247;BME280;66279;42.820;23.374;2024-03-08T01:37:36;95714.56;;;10.94;54.49
77247;BME280;66279;42.820;23.374;2024-03-08T01:40:02;95722.09;;;10.97;53.93
77247;BME280;66279;42.820;23.374;2024-03-08T01:42:30;95712.97;;;10.79;54.30
77247;BME280;66279;42.820;23.374;2024-03-08T01:44:56;95709.47;;;10.92;54.24
77247;BME280;66279;42.820;23.374;2024-03-08T01:47:22;95712.09;;;10.92;53.93
77247;BME280;66279;42.820;23.374;2024-03-08T01:49:49;95702.72;;;10.90;53.89
77247;BME280;66279;42.820;23.374;2024-03-08T01:52:15;95712.91;;;10.99;53.72
77247;BME280;66279;42.820;23.374;2024-03-08T01:54:41;95699.69;;;10.99;53.41
77247;BME280;66279;42.820;23.374;2024-03-08T01:57:07;95697.06;;;10.79;53.84
77247;BME280;66279;42.820;23.374;2024-03-08T01:59:33;95711.31;;;10.85;53.92
77247;BME280;66279;42.820;23.374;2024-03-08T02:02:01;95697.84;;;11.00;53.28
77247;BME280;66279;42.820;23.374;2024-03-08T02:04:29;95689.31;;;10.85;53.37
77247;BME280;66279;42.820;23.374;2024-03-08T02:06:56;95689.50;;;10.83;53.53
77247;BME280;66279;42.820;23.374;2024-03-08T02:09:23;95699.09;;;10.84;53.52
77247;BME280;66279;42.820;23.374;2024-03-08T02:11:50;95696.25;;;10.86;53.48
77247;BME280;66279;42.820;23.374;2024-03-08T02:14:17;95681.38;;;10.85;53.24
77247;BME280;66279;42.820;23.374;2024-03-08T02:16:42;95701.94;;;10.82;53.88
77247;BME280;66279;42.820;23.374;2024-03-08T02:19:08;95679.59;;;10.58;53.76
77247;BME280;66279;42.820;23.374;2024-03-08T02:21:35;95714.59;;;10.74;53.72
77247;BME280;66279;42.820;23.374;2024-03-08T02:24:01;95712.34;;;10.84;53.48
77247;BME280;66279;42.820;23.374;2024-03-08T02:26:27;95708.88;;;10.83;53.53
77247;BME280;66279;42.820;23.374;2024-03-08T02:28:53;95715.97;;;10.90;53.52
77247;BME280;66279;42.820;23.374;2024-03-08T02:31:19;95720.88;;;10.93;53.38
77247;BME280;66279;42.820;23.374;2024-03-08T02:33:44;95713.59;;;10.75;53.72
77247;BME280;66279;42.820;23.374;2024-03-08T02:36:12;95722.94;;;10.84;53.54
77247;BME280;66279;42.820;23.374;2024-03-08T02:38:38;95725.16;;;10.80;53.81
77247;BME280;66279;42.820;23.374;2024-03-08T02:41:06;95712.97;;;10.73;53.66
77247;BME280;66279;42.820;23.374;2024-03-08T02:43:31;95726.59;;;10.83;53.75
77247;BME280;66279;42.820;23.374;2024-03-08T02:45:57;95737.59;;;10.80;53.96
77247;BME280;66279;42.820;23.374;2024-03-08T02:48:22;95735.34;;;10.83;53.61
77247;BME280;66279;42.820;23.374;2024-03-08T02:50:47;95732.94;;;10.75;53.97
77247;BME280;66279;42.820;23.374;2024-03-08T02:53:13;95730.88;;;10.77;53.70
77247;BME280;66279;42.820;23.374;2024-03-08T02:55:39;95738.41;;;10.94;53.51
77247;BME280;66279;42.820;23.374;2024-03-08T02:58:06;95739.44;;;10.86;53.59
77247;BME280;66279;42.820;23.374;2024-03-08T03:00:35;95746.16;;;10.82;53.68
77247;BME280;66279;42.820;23.374;2024-03-08T03:03:01;95749.84;;;10.81;53.94
77247;BME280;66279;42.820;23.374;2024-03-08T03:05:28;95733.75;;;10.76;54.18
77247;BME280;66279;42.820;23.374;2024-03-08T03:07:54;95742.72;;;10.75;54.16
77247;BME280;66279;42.820;23.374;2024-03-08T03:10:21;95731.91;;;10.83;53.95
77247;BME280;66279;42.820;23.374;2024-03-08T03:12:47;95732.75;;;10.70;54.20
77247;BME280;66279;42.820;23.374;2024-03-08T03:15:14;95744.56;;;10.81;53.80
77247;BME280;66279;42.820;23.374;2024-03-08T03:17:39;95749.44;;;10.71;54.12
77247;BME280;66279;42.820;23.374;2024-03-08T03:20:08;95749.66;;;10.76;54.20
77247;BME280;66279;42.820;23.374;2024-03-08T03:22:40;95750.88;;;10.73;53.89
77247;BME280;66279;42.820;23.374;2024-03-08T03:25:07;95756.38;;;10.72;54.16
77247;BME280;66279;42.820;23.374;2024-03-08T03:27:33;95759.81;;;10.79;54.08
77247;BME280;66279;42.820;23.374;2024-03-08T03:29:59;95756.94;;;10.80;54.04
77247;BME280;66279;42.820;23.374;2024-03-08T03:32:44;95765.31;;;10.77;53.91
77247;BME280;66279;42.820;23.374;2024-03-08T03:35:12;95763.50;;;10.78;53.84
77247;BME280;66279;42.820;23.374;2024-03-08T03:37:38;95764.91;;;10.74;53.99
77247;BME280;66279;42.820;23.374;2024-03-08T03:40:05;95766.97;;;10.78;53.96
77247;BME280;66279;42.820;23.374;2024-03-08T03:42:31;95763.91;;;10.68;53.98
77247;BME280;66279;42.820;23.374;2024-03-08T03:44:56;95766.97;;;10.72;54.03
77247;BME280;66279;42.820;23.374;2024-03-08T03:47:21;95775.50;;;10.74;54.00
77247;BME280;66279;42.820;23.374;2024-03-08T03:49:47;95768.78;;;10.78;53.95
77247;BME280;66279;42.820;23.374;2024-03-08T03:52:12;95760.03;;;10.64;53.87
77247;BME280;66279;42.820;23.374;2024-03-08T03:54:38;95783.06;;;10.70;54.14
77247;BME280;66279;42.820;23.374;2024-03-08T03:57:04;95781.19;;;10.77;53.93
77247;BME280;66279;42.820;23.374;2024-03-08T03:59:29;95787.72;;;10.68;53.92
77247;BME280;66279;42.820;23.374;2024-03-08T04:01:55;95769.22;;;10.55;53.85
77247;BME280;66279;42.820;23.374;2024-03-08T04:04:21;95791.41;;;10.74;53.79
77247;BME280;66279;42.820;23.374;2024-03-08T04:06:47;95790.59;;;10.73;53.88
77247;BME280;66279;42.820;23.374;2024-03-08T04:09:13;95796.91;;;10.72;53.70
77247;BME280;66279;42.820;23.374;2024-03-08T04:11:39;95785.50;;;10.65;53.65
77247;BME280;66279;42.820;23.374;2024-03-08T04:14:04;95810.34;;;10.71;53.82
77247;BME280;66279;42.820;23.374;2024-03-08T04:16:31;95806.09;;;10.63;53.96
77247;BME280;66279;42.820;23.374;2024-03-08T04:18:57;95816.69;;;10.63;54.02
77247;BME280;66279;42.820;23.374;2024-03-08T04:21:22;95810.97;;;10.66;53.77
77247;BME280;66279;42.820;23.374;2024-03-08T04:23:48;95818.28;;;10.64;53.88
77247;BME280;66279;42.820;23.374;2024-03-08T04:26:13;95827.47;;;10.75;53.69
77247;BME280;66279;42.820;23.374;2024-03-08T04:28:39;95822.78;;;10.70;53.87
77247;BME280;66279;42.820;23.374;2024-03-08T04:31:05;95820.94;;;10.64;54.16
77247;BME280;66279;42.820;23.374;2024-03-08T04:33:30;95829.69;;;10.71;54.00
77247;BME280;66279;42.820;23.374;2024-03-08T04:35:55;95827.88;;;10.72;53.80
77247;BME280;66279;42.820;23.374;2024-03-08T04:38:21;95833.16;;;10.65;54.25
77247;BME280;66279;42.820;23.374;2024-03-08T04:40:48;95825.22;;;10.65;53.88
77247;BME280;66279;42.820;23.374;2024-03-08T04:43:14;95826.25;;;10.64;53.86
77247;BME280;66279;42.820;23.374;2024-03-08T04:45:39;95827.66;;;10.67;54.00
77247;BME280;66279;42.820;23.374;2024-03-08T04:48:08;95818.69;;;10.61;53.99
77247;BME280;66279;42.820;23.374;2024-03-08T04:50:34;95821.97;;;10.56;54.45
77247;BME280;66279;42.820;23.374;2024-03-08T04:52:59;95827.03;;;10.65;54.22
77247;BME280;66279;42.820;23.374;2024-03-08T04:55:25;95828.06;;;10.70;53.96
77247;BME280;66279;42.820;23.374;2024-03-08T04:57:51;95829.28;;;10.61;54.12
77247;BME280;66279;42.820;23.374;2024-03-08T05:00:16;95832.56;;;10.63;53.85
77247;BME280;66279;42.820;23.374;2024-03-08T05:02:42;95832.34;;;10.58;54.20
77247;BME280;66279;42.820;23.374;2024-03-08T05:05:08;95831.53;;;10.51;54.24
77247;BME280;66279;42.820;23.374;2024-03-08T05:07:37;95829.69;;;10.58;54.22
77247;BME280;66279;42.820;23.374;2024-03-08T05:10:02;95839.06;;;10.67;53.86
77247;BME280;66279;42.820;23.374;2024-03-08T05:12:28;95841.94;;;10.66;53.62
77247;BME280;66279;42.820;23.374;2024-03-08T05:14:53;95838.44;;;10.58;54.23
77247;BME280;66279;42.820;23.374;2024-03-08T05:17:19;95839.88;;;10.61;53.91
77247;BME280;66279;42.820;23.374;2024-03-08T05:19:45;95838.03;;;10.55;53.81
77247;BME280;66279;42.820;23.374;2024-03-08T05:22:11;95843.56;;;10.53;54.16
77247;BME280;66279;42.820;23.374;2024-03-08T05:24:36;95849.84;;;10.46;54.39
77247;BME280;66279;42.820;23.374;2024-03-08T05:27:02;95853.94;;;10.68;53.96
77247;BME280;66279;42.820;23.374;2024-03-08T05:29:29;95843.34;;;10.48;54.16
77247;BME280;66279;42.820;23.374;2024-03-08T05:31:54;95857.59;;;10.60;54.11
77247;BME280;66279;42.820;23.374;2024-03-08T05:34:21;95858.81;;;10.51;54.09
77247;BME280;66279;42.820;23.374;2024-03-08T05:36:47;95870.63;;;10.62;53.87
77247;BME280;66279;42.820;23.374;2024-03-08T05:39:15;95862.91;;;10.67;53.95
77247;BME280;66279;42.820;23.374;2024-03-08T05:41:44;95874.09;;;10.56;54.16
77247;BME280;66279;42.820;23.374;2024-03-08T05:44:10;95878.16;;;10.58;54.01
77247;BME280;66279;42.820;23.374;2024-03-08T05:46:36;95876.13;;;10.54;53.59
77247;BME280;66279;42.820;23.374;2024-03-08T05:49:02;95883.44;;;10.45;54.24
77247;BME280;66279;42.820;23.374;2024-03-08T05:51:34;95878.78;;;10.47;54.18
77247;BME280;66279;42.820;23.374;2024-03-08T05:54:01;95873.84;;;10.31;54.08
77247;BME280;66279;42.820;23.374;2024-03-08T05:56:28;95867.97;;;10.42;53.94
77247;BME280;66279;42.820;23.374;2024-03-08T05:58:54;95887.13;;;10.44;54.18
77247;BME280;66279;42.820;23.374;2024-03-08T06:01:19;95890.38;;;10.46;53.85
77247;BME280;66279;42.820;23.374;2024-03-08T06:03:45;95885.69;;;10.62;53.38
77247;BME280;66279;42.820;23.374;2024-03-08T06:06:12;95895.66;;;10.53;53.64
77247;BME280;66279;42.820;23.374;2024-03-08T06:08:38;95895.47;;;10.54;53.36
77247;BME280;66279;42.820;23.374;2024-03-08T06:11:03;95893.66;;;10.62;53.18
77247;BME280;66279;42.820;23.374;2024-03-08T06:13:29;95887.53;;;10.41;53.87
77247;BME280;66279;42.820;23.374;2024-03-08T06:15:56;95899.16;;;10.53;53.60
77247;BME280;66279;42.820;23.374;2024-03-08T06:18:22;95895.69;;;9.91;54.81
77247;BME280;66279;42.820;23.374;2024-03-08T06:20:47;95900.22;;;10.04;53.99
77247;BME280;66279;42.820;23.374;2024-03-08T06:23:13;95914.25;;;10.05;54.13
77247;BME280;66279;42.820;23.374;2024-03-08T06:25:43;95908.16;;;10.11;54.17
77247;BME280;66279;42.820;23.374;2024-03-08T06:28:08;95917.75;;;10.19;54.19
77247;BME280;66279;42.820;23.374;2024-03-08T06:30:34;95915.31;;;10.17;54.12
77247;BME280;66279;42.820;23.374;2024-03-08T06:33:00;95920.78;;;10.15;53.90
77247;BME280;66279;42.820;23.374;2024-03-08T06:35:25;95920.78;;;10.15;54.07
77247;BME280;66279;42.820;23.374;2024-03-08T06:37:51;95919.06;;;10.29;53.78
77247;BME280;66279;42.820;23.374;2024-03-08T06:40:16;95912.94;;;10.29;54.03
77247;BME280;66279;42.820;23.374;2024-03-08T06:42:41;95919.69;;;10.31;54.16
77247;BME280;66279;42.820;23.374;2024-03-08T06:45:08;95921.66;;;10.23;54.72
77247;BME280;66279;42.820;23.374;2024-03-08T06:47:35;95923.72;;;10.34;54.15
77247;BME280;66279;42.820;23.374;2024-03-08T06:50:01;95920.66;;;10.30;54.01
77247;BME280;66279;42.820;23.374;2024-03-08T06:52:26;95913.94;;;10.28;54.10
77247;BME280;66279;42.820;23.374;2024-03-08T06:54:51;95932.69;;;10.33;54.19
77247;BME280;66279;42.820;23.374;2024-03-08T06:57:18;95935.16;;;10.34;54.03
77247;BME280;66279;42.820;23.374;2024-03-08T06:59:43;95939.22;;;10.37;53.82
77247;BME280;66279;42.820;23.374;2024-03-08T07:02:10;95937.53;;;10.23;54.65
77247;BME280;66279;42.820;23.374;2024-03-08T07:04:35;95939.38;;;10.22;54.34
77247;BME280;66279;42.820;23.374;2024-03-08T07:07:04;95936.50;;;10.24;54.55
77247;BME280;66279;42.820;23.374;2024-03-08T07:09:29;95944.22;;;10.19;54.51
77247;BME280;66279;42.820;23.374;2024-03-08T07:11:54;95946.91;;;10.25;54.45
77247;BME280;66279;42.820;23.374;2024-03-08T07:14:22;95938.72;;;10.20;54.51
77247;BME280;66279;42.820;23.374;2024-03-08T07:16:47;95945.25;;;10.24;54.66
77247;BME280;66279;42.820;23.374;2024-03-08T07:19:13;95959.97;;;10.27;54.74
77247;BME280;66279;42.820;23.374;2024-03-08T07:21:38;95955.06;;;10.30;54.81
77247;BME280;66279;42.820;23.374;2024-03-08T07:24:04;95956.50;;;10.33;54.65
77247;BME280;66279;42.820;23.374;2024-03-08T07:26:41;95956.06;;;10.23;54.55
77247;BME280;66279;42.820;23.374;2024-03-08T07:29:07;95916.09;;;10.04;54.20
77247;BME280;66279;42.820;23.374;2024-03-08T07:31:33;95955.50;;;10.34;54.45
77247;BME280;66279;42.820;23.374;2024-03-08T07:34:20;95953.56;;;10.14;54.98
77247;BME280;66279;42.820;23.374;2024-03-08T07:36:46;95957.53;;;10.32;54.70
77247;BME280;66279;42.820;23.374;2024-03-08T07:39:11;95956.06;;;10.23;55.10
77247;BME280;66279;42.820;23.374;2024-03-08T07:41:38;95958.06;;;10.21;55.06
77247;BME280;66279;42.820;23.374;2024-03-08T07:44:06;95956.06;;;10.23;55.02
77247;BME280;66279;42.820;23.374;2024-03-08T07:46:31;95952.38;;;10.24;55.00
77247;BME280;66279;42.820;23.374;2024-03-08T07:48:59;95952.81;;;10.27;54.64
77247;BME280;66279;42.820;23.374;2024-03-08T07:51:25;95956.44;;;10.20;55.02
77247;BME280;66279;42.820;23.374;2024-03-08T07:53:50;95961.72;;;10.13;54.71
77247;BME280;66279;42.820;23.374;2024-03-08T07:56:16;95954.22;;;10.23;54.57
77247;BME280;66279;42.820;23.374;2024-03-08T07:58:44;95963.53;;;10.12;54.71
77247;BME280;66279;42.820;23.374;2024-03-08T08:01:18;95954.78;;;10.12;54.93
77247;BME280;66279;42.820;23.374;2024-03-08T08:03:44;95956.22;;;10.14;54.52
77247;BME280;66279;42.820;23.374;2024-03-08T08:06:10;95953.56;;;10.14;54.94
77247;BME280;66279;42.820;23.374;2024-03-08T08:08:41;95951.13;;;10.13;54.84
77247;BME280;66279;42.820;23.374;2024-03-08T08:11:07;95950.75;;;10.16;54.94
77247;BME280;66279;42.820;23.374;2024-03-08T08:13:34;95957.00;;;10.08;55.21
77247;BME280;66279;42.820;23.374;2024-03-08T08:15:59;95958.84;;;10.08;54.91
77247;BME280;66279;42.820;23.374;2024-03-08T08:18:24;95913.53;;;9.76;55.01
77247;BME280;66279;42.820;23.374;2024-03-08T08:20:51;95953.97;;;10.18;54.83
77247;BME280;66279;42.820;23.374;2024-03-08T08:23:17;95947.84;;;10.04;54.67
77247;BME280;66279;42.820;23.374;2024-03-08T08:25:45;95948.81;;;10.03;55.02
77247;BME280;66279;42.820;23.374;2024-03-08T08:28:10;95954.13;;;10.03;54.94
77247;BME280;66279;42.820;23.374;2024-03-08T08:30:38;95953.31;;;10.03;54.61
77247;BME280;66279;42.820;23.374;2024-03-08T08:33:03;95955.75;;;9.98;54.85
77247;BME280;66279;42.820;23.374;2024-03-08T08:35:31;95955.28;;;9.94;54.71
77247;BME280;66279;42.820;23.374;2024-03-08T08:37:56;95953.13;;;10.04;54.51
77247;BME280;66279;42.820;23.374;2024-03-08T08:40:24;95953.69;;;10.00;54.75
77247;BME280;66279;42.820;23.374;2024-03-08T08:42:51;95941.34;;;10.13;54.71
77247;BME280;66279;42.820;23.374;2024-03-08T08:45:18;95947.75;;;10.32;54.23
77247;BME280;66279;42.820;23.374;2024-03-08T08:47:44;95945.94;;;10.33;54.22
77247;BME280;66279;42.820;23.374;2024-03-08T08:50:10;95942.81;;;10.16;54.68
77247;BME280;66279;42.820;23.374;2024-03-08T08:52:39;95937.13;;;10.26;54.63
77247;BME280;66279;42.820;23.374;2024-03-08T08:55:04;95941.78;;;10.17;55.00
77247;BME280;66279;42.820;23.374;2024-03-08T08:57:32;95940.84;;;10.31;54.52
77247;BME280;66279;42.820;23.374;2024-03-08T08:59:58;95953.69;;;10.41;54.29
77247;BME280;66279;42.820;23.374;2024-03-08T09:02:24;95943.00;;;10.21;54.46
77247;BME280;66279;42.820;23.374;2024-03-08T09:04:50;95940.78;;;10.25;54.54
77247;BME280;66279;42.820;23.374;2024-03-08T09:07:16;95921.16;;;9.99;54.69
77247;BME280;66279;42.820;23.374;2024-03-08T09:09:44;95948.28;;;10.14;54.90
77247;BME280;66279;42.820;23.374;2024-03-08T09:12:10;95933.53;;;10.40;54.12
77247;BME280;66279;42.820;23.374;2024-03-08T09:14:41;95939.84;;;10.39;54.28
77247;BME280;66279;42.820;23.374;2024-03-08T09:17:07;95943.06;;;10.28;54.72
77247;BME280;66279;42.820;23.374;2024-03-08T09:19:34;95936.13;;;10.27;54.75
77247;BME280;66279;42.820;23.374;2024-03-08T09:21:59;95939.78;;;10.26;54.88
77247;BME280;66279;42.820;23.374;2024-03-08T09:24:25;95930.06;;;10.46;54.52
77247;BME280;66279;42.820;23.374;2024-03-08T09:26:51;95930.88;;;10.40;54.61
77247;BME280;66279;42.820;23.374;2024-03-08T09:29:17;95924.34;;;10.36;54.56
77247;BME280;66279;42.820;23.374;2024-03-08T09:31:42;95934.97;;;10.56;54.22
77247;BME280;66279;42.820;23.374;2024-03-08T09:34:08;95932.91;;;10.38;54.51
77247;BME280;66279;42.820;23.374;2024-03-08T09:36:34;95933.97;;;10.50;54.16
77247;BME280;66279;42.820;23.374;2024-03-08T09:38:59;95936.25;;;10.67;53.94
77247;BME280;66279;42.820;23.374;2024-03-08T09:41:26;95930.69;;;10.48;54.35
77247;BME280;66279;42.820;23.374;2024-03-08T09:43:51;95931.13;;;10.65;53.96
77247;BME280;66279;42.820;23.374;2024-03-08T09:46:18;95938.25;;;10.58;54.01
77247;BME280;66279;42.820;23.374;2024-03-08T09:48:45;95931.50;;;10.42;54.44
77247;BME280;66279;42.820;23.374;2024-03-08T09:51:12;95930.47;;;10.36;54.86
77247;BME280;66279;42.820;23.374;2024-03-08T09:53:40;95934.97;;;10.56;54.03
77247;BME280;66279;42.820;23.374;2024-03-08T09:56:07;95938.88;;;10.67;54.01
77247;BME280;66279;42.820;23.374;2024-03-08T09:58:33;95942.34;;;10.60;54.14
77247;BME280;66279;42.820;23.374;2024-03-08T10:00:59;95931.91;;;10.52;54.32
77247;BME280;66279;42.820;23.374;2024-03-08T10:03:27;95927.22;;;10.41;54.28
77247;BME280;66279;42.820;23.374;2024-03-08T10:05:54;95930.72;;;10.68;53.79
77247;BME280;66279;42.820;23.374;2024-03-08T10:08:21;95929.72;;;10.82;53.14
77247;BME280;66279;42.820;23.374;2024-03-08T10:10:47;95922.19;;;10.86;53.04
77247;BME280;66279;42.820;23.374;2024-03-08T10:13:12;95927.91;;;10.76;53.36
77247;BME280;66279;42.820;23.374;2024-03-08T10:15:42;95939.94;;;10.86;53.59
77247;BME280;66279;42.820;23.374;2024-03-08T10:18:08;95928.47;;;10.52;54.12
77247;BME280;66279;42.820;23.374;2024-03-08T10:20:35;95933.41;;;10.88;53.40
77247;BME280;66279;42.820;23.374;2024-03-08T10:23:01;95934.63;;;10.72;53.49
77247;BME280;66279;42.820;23.374;2024-03-08T10:25:29;95930.94;;;10.80;53.43
77247;BME280;66279;42.820;23.374;2024-03-08T10:27:55;95924.63;;;10.61;53.65
77247;BME280;66279;42.820;23.374;2024-03-08T10:30:21;95928.13;;;10.75;53.80
77247;BME280;66279;42.820;23.374;2024-03-08T10:32:47;95923.81;;;10.67;53.71
77247;BME280;66279;42.820;23.374;2024-03-08T10:35:13;95924.38;;;10.56;54.10
77247;BME280;66279;42.820;23.374;2024-03-08T10:40:04;95921.16;;;10.80;52.76
77247;BME280;66279;42.820;23.374;2024-03-08T10:42:52;95921.16;;;10.60;53.34
77247;BME280;66279;42.820;23.374;2024-03-08T10:45:39;95915.63;;;10.55;53.48
77247;BME280;66279;42.820;23.374;2024-03-08T10:48:28;95911.34;;;10.48;53.71
77247;BME280;66279;42.820;23.374;2024-03-08T10:50:57;95904.44;;;10.53;53.41
77247;BME280;66279;42.820;23.374;2024-03-08T10:53:23;95905.28;;;10.67;52.94
77247;BME280;66279;42.820;23.374;2024-03-08T10:55:49;95904.63;;;10.58;53.45
77247;BME280;66279;42.820;23.374;2024-03-08T10:58:23;95913.44;;;10.66;52.90
77247;BME280;66279;42.820;23.374;2024-03-08T11:00:52;95900.78;;;10.74;52.66
77247;BME280;66279;42.820;23.374;2024-03-08T11:06:07;95896.91;;;10.83;52.39
77247;BME280;66279;42.820;23.374;2024-03-08T11:08:36;95885.34;;;10.78;52.47
77247;BME280;66279;42.820;23.374;2024-03-08T11:11:01;95892.84;;;10.74;52.41
77247;BME280;66279;42.820;23.374;2024-03-08T11:13:40;95892.03;;;10.47;53.52
77247;BME280;66279;42.820;23.374;2024-03-08T11:16:10;95874.28;;;10.48;53.57
77247;BME280;66279;42.820;23.374;2024-03-08T11:18:36;95880.19;;;10.50;53.33
77247;BME280;66279;42.820;23.374;2024-03-08T11:21:03;95876.75;;;10.89;52.76
77247;BME280;66279;42.820;23.374;2024-03-08T11:23:32;95883.28;;;10.80;52.70
77247;BME280;66279;42.820;23.374;2024-03-08T11:25:59;95884.09;;;10.74;52.81
77247;BME280;66279;42.820;23.374;2024-03-08T11:28:25;95883.69;;;10.83;52.31
77247;BME280;66279;42.820;23.374;2024-03-08T11:33:27;95890.00;;;10.63;52.76
77247;BME280;66279;42.820;23.374;2024-03-08T11:36:11;95872.69;;;10.67;52.65
77247;BME280;66279;42.820;23.374;2024-03-08T11:38:42;95868.78;;;10.49;53.28
77247;BME280;66279;42.820;23.374;2024-03-08T11:41:09;95875.91;;;10.55;53.14
77247;BME280;66279;42.820;23.374;2024-03-08T11:43:38;95865.31;;;10.49;52.96
77247;BME280;66279;42.820;23.374;2024-03-08T11:46:09;95866.56;;;10.66;52.89
77247;BME280;66279;42.820;23.374;2024-03-08T11:48:34;95870.03;;;10.80;52.61
77247;BME280;66279;42.820;23.374;2024-03-08T11:51:04;95866.97;;;10.63;52.58
77247;BME280;66279;42.820;23.374;2024-03-08T11:53:30;95865.16;;;10.64;52.78
77247;BME280;66279;42.820;23.374;2024-03-08T11:56:08;95848.00;;;10.40;53.16
77247;BME280;66279;42.820;23.374;2024-03-08T11:58:35;95850.66;;;10.33;53.27
77247;BME280;66279;42.820;23.374;2024-03-08T12:01:06;95866.94;;;10.43;53.42
77247;BME280;66279;42.820;23.374;2024-03-08T12:03:33;95861.88;;;10.55;52.74
77247;BME280;66279;42.820;23.374;2024-03-08T12:06:00;95856.59;;;10.75;52.23
77247;BME280;66279;42.820;23.374;2024-03-08T12:08:25;95857.19;;;10.70;51.91
77247;BME280;66279;42.820;23.374;2024-03-08T12:10:54;95866.34;;;10.54;52.73
77247;BME280;66279;42.820;23.374;2024-03-08T12:13:31;95858.59;;;10.33;52.94
77247;BME280;66279;42.820;23.374;2024-03-08T12:16:02;95860.44;;;10.32;53.55
77247;BME280;66279;42.820;23.374;2024-03-08T12:18:33;95865.13;;;10.44;53.47
77247;BME280;66279;42.820;23.374;2024-03-08T12:21:11;95866.34;;;10.68;52.38
77247;BME280;66279;42.820;23.374;2024-03-08T12:23:39;95862.91;;;10.47;52.97
77247;BME280;66279;42.820;23.374;2024-03-08T12:28:41;95867.78;;;10.77;51.49
77247;BME280;66279;42.820;23.374;2024-03-08T12:31:08;95863.53;;;10.76;51.68
77247;BME280;66279;42.820;23.374;2024-03-08T12:33:55;95857.19;;;10.57;51.75
77247;BME280;66279;42.820;23.374;2024-03-08T12:36:24;95855.38;;;10.84;51.41
77247;BME280;66279;42.820;23.374;2024-03-08T12:38:52;95848.22;;;10.65;51.80
77247;BME280;66279;42.820;23.374;2024-03-08T12:41:20;95844.16;;;10.49;52.66
77247;BME280;66279;42.820;23.374;2024-03-08T12:43:46;95842.94;;;10.51;52.47
77247;BME280;66279;42.820;23.374;2024-03-08T12:46:15;95842.13;;;10.51;52.10
77247;BME280;66279;42.820;23.374;2024-03-08T12:48:42;95851.06;;;10.36;52.74
77247;BME280;66279;42.820;23.374;2024-03-08T12:51:15;95840.91;;;10.47;52.41
77247;BME280;66279;42.820;23.374;2024-03-08T12:53:44;95844.59;;;10.66;50.98
77247;BME280;66279;42.820;23.374;2024-03-08T12:56:11;95827.25;;;10.50;51.83
77247;BME280;66279;42.820;23.374;2024-03-08T12:58:37;95818.88;;;10.33;52.26